createdAt,value
2019-05-18T00:00:54.758Z,25.92
2019-05-18T00:03:22.537Z,35.83
2019-05-18T00:05:53.777Z,30.20
2019-05-18T00:08:21.367Z,37.78
2019-05-18T00:10:49.055Z,28.67
2019-05-18T00:13:16.985Z,30.15
2019-05-18T00:15:44.590Z,25.05
2019-05-18T00:18:12.191Z,31.48
2019-05-18T00:20:41.003Z,28.05
2019-05-18T00:23:09.715Z,29.42
2019-05-18T00:25:37.537Z,28.92
2019-05-18T00:28:05.368Z,24.75
2019-05-18T00:30:36.955Z,27.02
2019-05-18T00:33:04.565Z,27.15
2019-05-18T00:35:33.375Z,24.47
2019-05-18T00:38:00.956Z,26.15
2019-05-18T00:40:28.784Z,27.00
2019-05-18T00:42:56.697Z,28.00
2019-05-18T00:45:24.582Z,23.80
2019-05-18T00:47:52.209Z,23.00
2019-05-18T00:50:20.036Z,23.77
2019-05-18T00:52:47.835Z,22.00
2019-05-18T00:55:15.434Z,26.35
2019-05-18T00:57:43.024Z,23.65
2019-05-18T01:00:12.954Z,26.97
2019-05-18T01:02:40.750Z,27.20
2019-05-18T01:05:09.398Z,22.98
2019-05-18T01:07:38.225Z,24.32
2019-05-18T01:10:08.991Z,26.30
2019-05-18T01:12:37.325Z,26.82
2019-05-18T01:15:07.144Z,23.12
2019-05-18T01:17:34.753Z,27.13
2019-05-18T01:20:02.926Z,25.85
2019-05-18T01:22:30.518Z,24.65
2019-05-18T01:24:58.147Z,24.47
2019-05-18T01:27:26.136Z,26.33
2019-05-18T01:29:53.941Z,26.12
2019-05-18T01:32:23.370Z,29.82
2019-05-18T01:34:51.316Z,26.60
2019-05-18T01:37:20.505Z,26.12
2019-05-18T01:39:48.284Z,26.27
2019-05-18T01:42:16.118Z,21.97
2019-05-18T01:44:43.934Z,27.02
2019-05-18T01:47:11.536Z,23.18
2019-05-18T01:49:39.141Z,23.12
2019-05-18T01:52:06.703Z,22.70
2019-05-18T01:54:34.340Z,26.70
2019-05-18T01:57:01.948Z,24.47
2019-05-18T01:59:29.572Z,26.30
2019-05-18T02:01:58.603Z,25.92
2019-05-18T02:04:26.558Z,22.15
2019-05-18T02:06:54.383Z,17.77
2019-05-18T02:09:22.644Z,17.98
2019-05-18T02:11:51.553Z,15.03
2019-05-18T02:14:19.167Z,15.95
2019-05-18T02:16:46.834Z,15.50
2019-05-18T02:19:14.855Z,18.37
2019-05-18T02:21:42.443Z,18.00
2019-05-18T02:24:10.041Z,17.40
2019-05-18T02:26:38.833Z,17.62
2019-05-18T02:29:06.452Z,16.55
2019-05-18T02:31:34.157Z,19.50
2019-05-18T02:34:04.905Z,16.70
2019-05-18T02:36:32.505Z,16.35
2019-05-18T02:39:00.291Z,16.77
2019-05-18T02:41:28.588Z,17.37
2019-05-18T02:43:56.147Z,16.40
2019-05-18T02:46:23.923Z,15.35
2019-05-18T02:48:51.765Z,17.77
2019-05-18T02:51:19.646Z,14.28
2019-05-18T02:53:47.515Z,12.50
2019-05-18T02:56:15.104Z,12.85
2019-05-18T02:58:42.789Z,11.03
2019-05-18T03:01:10.710Z,9.40
2019-05-18T03:03:39.785Z,9.03
2019-05-18T03:06:07.803Z,8.85
2019-05-18T03:08:35.592Z,10.25
2019-05-18T03:11:03.573Z,10.70
2019-05-18T03:13:31.402Z,17.80
2019-05-18T03:15:59.222Z,18.10
2019-05-18T03:18:27.174Z,22.93
2019-05-18T03:20:56.191Z,21.73
2019-05-18T03:23:23.840Z,28.12
2019-05-18T03:25:51.410Z,23.98
2019-05-18T03:28:19.280Z,27.25
2019-05-18T03:30:47.155Z,28.42
2019-05-18T03:33:15.059Z,26.45
2019-05-18T03:35:42.841Z,23.02
2019-05-18T03:38:12.151Z,30.00
2019-05-18T03:40:41.174Z,29.98
2019-05-18T03:43:08.947Z,26.23
2019-05-18T03:45:40.735Z,27.25
2019-05-18T03:48:08.740Z,25.88
2019-05-18T03:50:38.718Z,28.60
2019-05-18T03:53:06.548Z,26.52
2019-05-18T03:55:34.142Z,22.75
2019-05-18T03:58:01.718Z,22.50
2019-05-18T04:00:35.002Z,23.35
2019-05-18T04:03:03.077Z,25.72
2019-05-18T04:05:31.139Z,31.15
2019-05-18T04:07:59.084Z,26.12
2019-05-18T04:10:27.796Z,26.52
2019-05-18T04:12:55.611Z,26.33
2019-05-18T04:15:23.445Z,26.52
2019-05-18T04:17:51.357Z,28.17
2019-05-18T04:20:19.234Z,25.62
2019-05-18T04:22:48.451Z,36.25
2019-05-18T04:25:16.042Z,29.87
2019-05-18T04:27:44.497Z,26.97
2019-05-18T04:30:13.097Z,25.05
2019-05-18T04:32:41.828Z,25.72
2019-05-18T04:35:09.651Z,26.07
2019-05-18T04:37:37.579Z,28.47
2019-05-18T04:40:05.913Z,26.27
2019-05-18T04:42:33.707Z,28.90
2019-05-18T04:45:01.595Z,26.35
2019-05-18T04:47:29.162Z,26.02
2019-05-18T04:50:05.348Z,24.60
2019-05-18T04:52:30.523Z,27.17
2019-05-18T04:54:58.411Z,29.07
2019-05-18T04:57:26.368Z,29.77
2019-05-18T04:59:53.974Z,32.80
2019-05-18T05:02:22.120Z,27.77
2019-05-18T05:04:53.890Z,30.72
2019-05-18T05:07:20.991Z,28.95
2019-05-18T05:09:48.769Z,35.10
2019-05-18T05:12:16.456Z,34.13
2019-05-18T05:14:44.041Z,35.73
2019-05-18T05:17:12.046Z,37.20
2019-05-18T05:19:39.899Z,38.35
2019-05-18T05:22:07.684Z,34.03
2019-05-18T05:24:35.628Z,34.88
2019-05-18T05:27:03.211Z,33.02
2019-05-18T05:29:30.828Z,35.23
2019-05-18T05:31:59.195Z,31.37
2019-05-18T05:34:26.950Z,42.50
2019-05-18T05:36:54.710Z,33.65
2019-05-18T05:39:22.283Z,31.35
2019-05-18T05:41:50.270Z,37.53
2019-05-18T05:44:18.178Z,37.85
2019-05-18T05:46:45.967Z,34.75
2019-05-18T05:49:14.748Z,33.40
2019-05-18T05:51:42.634Z,34.60
2019-05-18T05:54:11.197Z,37.15
2019-05-18T05:56:38.802Z,37.58
2019-05-18T05:59:06.418Z,33.80
2019-05-18T06:01:36.921Z,40.35
2019-05-18T06:04:04.803Z,33.02
2019-05-18T06:06:32.592Z,33.00
2019-05-18T06:09:00.296Z,32.65
2019-05-18T06:11:28.372Z,34.25
2019-05-18T06:13:56.399Z,47.00
2019-05-18T06:16:24.549Z,35.43
2019-05-18T06:18:52.120Z,40.25
2019-05-18T06:21:19.832Z,36.83
2019-05-18T06:23:47.667Z,38.60
2019-05-18T06:26:16.456Z,33.70
2019-05-18T06:28:44.267Z,34.00
2019-05-18T06:31:12.176Z,34.30
2019-05-18T06:33:39.980Z,35.13
2019-05-18T06:36:07.912Z,34.40
2019-05-18T06:38:36.104Z,30.30
2019-05-18T06:41:03.704Z,34.08
2019-05-18T06:43:33.076Z,32.93
2019-05-18T06:46:00.960Z,34.65
2019-05-18T06:48:28.584Z,41.73
2019-05-18T06:51:06.691Z,42.13
2019-05-18T06:53:27.088Z,33.65
2019-05-18T06:55:55.877Z,37.35
2019-05-18T06:58:24.782Z,40.40
2019-05-18T07:00:52.650Z,38.58
2019-05-18T07:03:22.262Z,39.50
2019-05-18T07:05:50.135Z,38.08
2019-05-18T07:08:18.233Z,36.88
2019-05-18T07:10:46.206Z,43.83
2019-05-18T07:13:14.051Z,40.20
2019-05-18T07:15:41.858Z,36.03
2019-05-18T07:18:09.468Z,39.98
2019-05-18T07:20:37.217Z,40.33
2019-05-18T07:23:04.818Z,39.20
2019-05-18T07:25:34.266Z,37.83
2019-05-18T07:28:02.477Z,39.42
2019-05-18T07:30:30.688Z,40.70
2019-05-18T07:32:58.305Z,42.33
2019-05-18T07:35:28.139Z,39.05
2019-05-18T07:37:56.839Z,43.63
2019-05-18T07:40:24.432Z,38.57
2019-05-18T07:42:52.019Z,41.77
2019-05-18T07:45:21.526Z,38.20
2019-05-18T07:47:51.944Z,43.10
2019-05-18T07:50:20.091Z,35.53
2019-05-18T07:52:47.740Z,38.80
2019-05-18T07:55:16.973Z,35.63
2019-05-18T07:57:44.586Z,41.17
2019-05-18T08:00:12.646Z,35.27
2019-05-18T08:02:40.224Z,32.30
2019-05-18T08:05:09.306Z,33.80
2019-05-18T08:07:36.947Z,36.07
2019-05-18T08:10:05.522Z,34.77
2019-05-18T08:12:33.145Z,32.47
2019-05-18T08:15:01.039Z,31.03
2019-05-18T08:17:28.627Z,31.37
2019-05-18T08:19:56.252Z,30.60
2019-05-18T08:22:24.166Z,30.10
2019-05-18T08:24:52.052Z,34.07
2019-05-18T08:27:20.873Z,32.53
2019-05-18T08:29:48.518Z,28.83
2019-05-18T08:32:17.575Z,27.53
2019-05-18T08:34:45.569Z,30.93
2019-05-18T08:37:13.323Z,27.17
2019-05-18T08:39:41.219Z,31.53
2019-05-18T08:42:09.030Z,27.87
2019-05-18T08:44:36.585Z,26.50
2019-05-18T08:47:04.258Z,27.47
2019-05-18T08:49:31.869Z,26.10
2019-05-18T08:52:07.848Z,23.47
2019-05-18T08:54:29.316Z,24.43
2019-05-18T08:56:56.931Z,23.70
2019-05-18T08:59:24.968Z,22.77
2019-05-18T09:01:55.642Z,22.23
2019-05-18T09:04:23.553Z,24.60
2019-05-18T09:06:53.066Z,21.30
2019-05-18T09:09:21.910Z,22.27
2019-05-18T09:11:50.867Z,16.40
2019-05-18T09:14:18.840Z,15.57
2019-05-18T09:16:46.683Z,15.13
2019-05-18T09:19:14.296Z,18.40
2019-05-18T09:21:43.141Z,18.10
2019-05-18T09:24:10.715Z,15.70
2019-05-18T09:26:38.488Z,16.07
2019-05-18T09:29:06.338Z,16.30
2019-05-18T09:31:33.927Z,16.40
2019-05-18T09:34:01.552Z,16.57
2019-05-18T09:36:29.542Z,15.40
2019-05-18T09:38:57.423Z,16.57
2019-05-18T09:41:26.043Z,15.70
2019-05-18T09:43:53.945Z,16.87
2019-05-18T09:46:21.579Z,15.03
2019-05-18T09:48:49.226Z,16.60
2019-05-18T09:51:16.783Z,14.90
2019-05-18T09:53:51.726Z,20.30
2019-05-18T09:56:13.943Z,15.60
2019-05-18T09:58:41.575Z,17.57
2019-05-18T10:01:09.431Z,14.30
2019-05-18T10:03:37.341Z,14.80
2019-05-18T10:06:05.165Z,14.50
2019-05-18T10:08:33.045Z,15.13
2019-05-18T10:11:01.673Z,14.67
2019-05-18T10:13:29.281Z,13.97
2019-05-18T10:15:57.368Z,13.80
2019-05-18T10:18:25.097Z,14.03
2019-05-18T10:20:55.901Z,14.80
2019-05-18T10:23:29.416Z,13.33
2019-05-18T10:25:57.114Z,14.50
2019-05-18T10:28:25.466Z,15.17
2019-05-18T10:30:53.049Z,15.40
2019-05-18T10:33:20.616Z,16.60
2019-05-18T10:35:48.216Z,15.57
2019-05-18T10:38:15.769Z,15.03
2019-05-18T10:40:43.427Z,16.43
2019-05-18T10:43:11.389Z,15.40
2019-05-18T10:45:51.479Z,14.17
2019-05-18T10:48:19.991Z,15.53
2019-05-18T10:50:47.557Z,12.47
2019-05-18T10:53:28.314Z,12.03
2019-05-18T10:55:46.313Z,10.10
2019-05-18T10:58:13.920Z,12.90
2019-05-18T11:00:56.541Z,9.97
2019-05-18T11:03:24.196Z,10.30
2019-05-18T11:05:51.747Z,9.73
2019-05-18T11:08:19.635Z,11.80
2019-05-18T11:10:47.224Z,9.90
2019-05-18T11:13:17.186Z,9.23
2019-05-18T11:15:45.214Z,9.83
2019-05-18T11:18:13.168Z,9.30
2019-05-18T11:20:43.674Z,8.63
2019-05-18T11:23:11.969Z,9.13
2019-05-18T11:25:40.135Z,8.13
2019-05-18T11:28:07.782Z,7.87
2019-05-18T11:30:35.744Z,7.97
2019-05-18T11:33:03.476Z,6.77
2019-05-18T11:35:32.291Z,7.50
2019-05-18T11:38:01.324Z,7.30
2019-05-18T11:40:34.156Z,7.33
2019-05-18T11:43:01.734Z,6.40
2019-05-18T11:45:29.576Z,6.93
2019-05-18T11:47:57.256Z,6.30
2019-05-18T11:50:25.634Z,7.10
2019-05-18T11:52:54.219Z,7.73
2019-05-18T11:55:22.869Z,6.93
2019-05-18T11:57:51.186Z,7.47
2019-05-18T12:00:19.918Z,7.50
2019-05-18T12:02:47.594Z,7.30
2019-05-18T12:05:15.922Z,4.90
2019-05-18T12:07:43.497Z,6.90
2019-05-18T12:10:11.750Z,7.03
2019-05-18T12:12:39.348Z,6.70
2019-05-18T12:15:08.688Z,10.17
2019-05-18T12:17:38.296Z,8.03
2019-05-18T12:20:08.232Z,7.17
2019-05-18T12:22:36.091Z,6.90
2019-05-18T12:25:03.937Z,7.37
2019-05-18T12:27:31.900Z,6.00
2019-05-18T12:29:59.493Z,5.83
2019-05-18T12:32:27.471Z,5.70
2019-05-18T12:35:08.008Z,6.63
2019-05-18T12:37:35.928Z,5.77
2019-05-18T12:40:04.593Z,5.70
2019-05-18T12:42:32.449Z,4.83
2019-05-18T12:45:01.096Z,6.37
2019-05-18T12:47:32.346Z,5.90
2019-05-18T12:50:00.152Z,6.30
2019-05-18T12:52:30.305Z,5.47
2019-05-18T12:54:57.978Z,4.03
2019-05-18T12:57:25.791Z,4.43
2019-05-18T12:59:53.643Z,4.00
2019-05-18T13:02:23.971Z,4.03
2019-05-18T13:04:51.551Z,3.90
2019-05-18T13:07:19.394Z,3.40
2019-05-18T13:09:49.541Z,3.67
2019-05-18T13:12:17.476Z,4.10
2019-05-18T13:14:45.050Z,3.60
2019-05-18T13:17:12.678Z,4.60
2019-05-18T13:19:40.255Z,4.50
2019-05-18T13:22:08.090Z,4.87
2019-05-18T13:24:44.766Z,4.43
2019-05-18T13:27:05.797Z,4.03
2019-05-18T13:29:33.774Z,5.37
2019-05-18T13:32:02.565Z,4.60
2019-05-18T13:34:30.337Z,4.50
2019-05-18T13:36:58.988Z,4.90
2019-05-18T13:39:26.915Z,9.30
2019-05-18T13:41:54.534Z,4.73
2019-05-18T13:44:22.233Z,4.70
2019-05-18T13:46:52.728Z,4.20
2019-05-18T13:49:20.736Z,4.30
2019-05-18T13:51:48.749Z,4.30
2019-05-18T13:54:16.648Z,4.67
2019-05-18T13:56:45.958Z,4.60
2019-05-18T13:59:14.948Z,4.70
2019-05-18T14:01:42.955Z,4.30
2019-05-18T14:04:10.926Z,4.73
2019-05-18T14:06:38.725Z,5.00
2019-05-18T14:09:06.696Z,5.00
2019-05-18T14:11:34.484Z,9.10
2019-05-18T14:14:02.245Z,4.20
2019-05-18T14:16:28.557Z,4.73
2019-05-18T14:18:56.465Z,4.93
2019-05-18T14:21:24.265Z,4.93
2019-05-18T14:23:52.168Z,5.47
2019-05-18T14:26:20.019Z,5.37
2019-05-18T14:28:47.608Z,4.40
2019-05-18T14:31:15.196Z,4.87
2019-05-18T14:33:42.762Z,5.33
2019-05-18T14:36:10.406Z,5.50
2019-05-18T14:38:38.123Z,4.70
2019-05-18T14:41:06.828Z,5.60
2019-05-18T14:43:34.697Z,5.27
2019-05-18T14:46:02.650Z,4.90
2019-05-18T14:48:30.629Z,4.43
2019-05-18T14:50:59.961Z,5.13
2019-05-18T14:53:29.955Z,4.47
2019-05-18T14:55:57.583Z,4.83
2019-05-18T14:58:25.562Z,4.97
2019-05-18T15:00:54.993Z,6.73
2019-05-18T15:03:22.969Z,4.70
2019-05-18T15:05:50.820Z,7.60
2019-05-18T15:08:18.654Z,5.63
2019-05-18T15:10:47.019Z,5.20
2019-05-18T15:13:14.745Z,5.10
2019-05-18T15:15:42.658Z,5.17
2019-05-18T15:18:10.512Z,5.50
2019-05-18T15:20:38.111Z,5.80
2019-05-18T15:23:07.050Z,5.50
2019-05-18T15:25:49.712Z,4.73
2019-05-18T15:28:05.013Z,6.30
2019-05-18T15:30:32.740Z,5.60
2019-05-18T15:33:01.849Z,5.27
2019-05-18T15:35:29.693Z,6.00
2019-05-18T15:38:01.067Z,7.00
2019-05-18T15:40:28.724Z,5.10
2019-05-18T15:42:56.579Z,5.00
2019-05-18T15:45:24.867Z,5.53
2019-05-18T15:47:53.089Z,5.77
2019-05-18T15:50:23.243Z,7.23
2019-05-18T15:52:52.157Z,5.10
2019-05-18T15:55:20.054Z,5.13
2019-05-18T15:57:47.883Z,5.07
2019-05-18T16:00:16.314Z,5.00
2019-05-18T16:02:44.013Z,9.83
2019-05-18T16:05:12.123Z,7.03
2019-05-18T16:07:39.792Z,5.83
2019-05-18T16:10:09.685Z,5.50
2019-05-18T16:12:37.291Z,6.00
2019-05-18T16:15:09.240Z,5.97
2019-05-18T16:17:39.942Z,10.40
2019-05-18T16:20:08.217Z,6.30
2019-05-18T16:22:36.041Z,8.33
2019-05-18T16:25:04.631Z,7.07
2019-05-18T16:27:32.541Z,6.37
2019-05-18T16:30:00.129Z,6.43
2019-05-18T16:32:29.082Z,9.23
2019-05-18T16:34:59.712Z,6.07
2019-05-18T16:37:28.164Z,6.10
2019-05-18T16:39:56.268Z,6.00
2019-05-18T16:42:23.938Z,6.23
2019-05-18T16:44:53.665Z,4.90
2019-05-18T16:47:21.278Z,6.53
2019-05-18T16:49:49.044Z,7.53
2019-05-18T16:52:16.921Z,6.10
2019-05-18T16:54:44.753Z,6.53
2019-05-18T16:57:12.636Z,6.30
2019-05-18T16:59:40.500Z,5.47
2019-05-18T17:02:08.399Z,6.60
2019-05-18T17:04:36.175Z,7.23
2019-05-18T17:07:04.108Z,7.00
2019-05-18T17:09:32.366Z,8.33
2019-05-18T17:12:01.104Z,9.13
2019-05-18T17:14:28.936Z,10.23
2019-05-18T17:16:57.702Z,9.63
2019-05-18T17:19:25.570Z,10.17
2019-05-18T17:21:53.269Z,8.80
2019-05-18T17:24:20.846Z,8.30
2019-05-18T17:26:53.396Z,8.60
2019-05-18T17:29:21.294Z,9.40
2019-05-18T17:31:48.957Z,9.03
2019-05-18T17:34:16.907Z,11.83
2019-05-18T17:36:44.681Z,10.07
2019-05-18T17:39:12.467Z,10.40
2019-05-18T17:41:40.387Z,10.97
2019-05-18T17:44:07.954Z,16.00
2019-05-18T17:46:36.347Z,11.40
2019-05-18T17:49:03.978Z,12.40
2019-05-18T17:51:32.675Z,14.53
2019-05-18T17:54:00.597Z,15.33
2019-05-18T17:56:28.225Z,12.70
2019-05-18T17:58:57.126Z,11.97
2019-05-18T18:01:24.746Z,17.50
2019-05-18T18:03:52.330Z,13.80
2019-05-18T18:06:20.264Z,14.00
2019-05-18T18:08:48.112Z,9.37
2019-05-18T18:11:16.057Z,11.77
2019-05-18T18:13:43.945Z,10.30
2019-05-18T18:16:11.715Z,12.30
2019-05-18T18:18:42.357Z,8.90
2019-05-18T18:21:10.514Z,11.13
2019-05-18T18:23:39.143Z,10.67
2019-05-18T18:26:06.946Z,9.10
2019-05-18T18:28:34.772Z,12.23
2019-05-18T18:31:02.408Z,9.20
2019-05-18T18:33:30.062Z,12.47
2019-05-18T18:35:58.826Z,8.53
2019-05-18T18:38:26.810Z,7.67
2019-05-18T18:40:54.450Z,9.03
2019-05-18T18:43:22.062Z,8.30
2019-05-18T18:45:53.779Z,8.07
2019-05-18T18:48:22.419Z,9.53
2019-05-18T18:50:50.133Z,12.93
2019-05-18T18:53:18.837Z,12.93
2019-05-18T18:55:47.871Z,11.60
2019-05-18T18:58:15.784Z,9.53
2019-05-18T19:00:44.424Z,9.07
2019-05-18T19:03:13.226Z,8.33
2019-05-18T19:05:41.929Z,8.00
2019-05-18T19:08:10.828Z,7.80
2019-05-18T19:10:39.724Z,8.98
2019-05-18T19:13:08.841Z,9.27
2019-05-18T19:15:38.648Z,10.43
2019-05-18T19:18:06.448Z,9.05
2019-05-18T19:20:42.991Z,9.98
2019-05-18T19:23:10.782Z,11.80
2019-05-18T19:25:38.408Z,11.48
2019-05-18T19:28:05.997Z,12.47
2019-05-18T19:30:33.677Z,11.08
2019-05-18T19:33:01.411Z,13.25
2019-05-18T19:35:31.395Z,12.98
2019-05-18T19:38:02.288Z,12.95
2019-05-18T19:40:39.349Z,14.10
2019-05-18T19:43:07.030Z,16.93
2019-05-18T19:45:34.767Z,14.85
2019-05-18T19:48:02.575Z,14.50
2019-05-18T19:50:31.236Z,14.65
2019-05-18T19:52:59.141Z,13.28
2019-05-18T19:55:28.872Z,12.90
2019-05-18T19:58:08.572Z,13.35
2019-05-18T20:00:30.592Z,13.40
2019-05-18T20:02:58.436Z,13.80
2019-05-18T20:05:26.033Z,14.45
2019-05-18T20:07:53.756Z,12.35
2019-05-18T20:10:24.591Z,15.63
2019-05-18T20:12:52.216Z,13.83
2019-05-18T20:15:20.870Z,14.10
2019-05-18T20:17:49.971Z,13.30
2019-05-18T20:20:18.777Z,13.95
2019-05-18T20:22:48.223Z,14.65
2019-05-18T20:25:18.468Z,12.60
2019-05-18T20:27:46.104Z,17.07
2019-05-18T20:30:26.235Z,14.60
2019-05-18T20:32:54.500Z,12.47
2019-05-18T20:35:25.648Z,12.33
2019-05-18T20:37:51.854Z,13.32
2019-05-18T20:40:21.620Z,12.63
2019-05-18T20:42:50.551Z,11.95
2019-05-18T20:45:20.805Z,14.30
2019-05-18T20:47:48.634Z,15.40
2019-05-18T20:50:16.595Z,12.65
2019-05-18T20:52:44.722Z,13.50
2019-05-18T20:55:12.496Z,14.00
2019-05-18T20:57:40.611Z,17.00
2019-05-18T21:00:08.733Z,15.45
2019-05-18T21:02:38.847Z,16.60
2019-05-18T21:05:08.500Z,18.02
2019-05-18T21:07:36.625Z,15.63
2019-05-18T21:10:06.121Z,14.58
2019-05-18T21:12:33.769Z,14.53
2019-05-18T21:15:03.699Z,15.00
2019-05-18T21:17:37.051Z,15.10
2019-05-18T21:20:06.355Z,14.78
2019-05-18T21:22:34.300Z,16.45
2019-05-18T21:25:02.067Z,15.35
2019-05-18T21:27:30.119Z,15.70
2019-05-18T21:29:57.960Z,14.93
2019-05-18T21:32:26.937Z,17.92
2019-05-18T21:34:56.355Z,16.97
2019-05-18T21:37:25.294Z,19.35
2019-05-18T21:39:53.881Z,15.05
2019-05-18T21:42:21.951Z,12.40
2019-05-18T21:44:59.009Z,13.30
2019-05-18T21:47:27.133Z,11.43
2019-05-18T21:49:58.230Z,12.07
2019-05-18T21:52:25.921Z,11.08
2019-05-18T21:54:53.852Z,12.53
2019-05-18T21:57:21.643Z,13.50
2019-05-18T21:59:49.516Z,14.60
2019-05-18T22:02:17.245Z,12.45
2019-05-18T22:04:46.583Z,14.28
2019-05-18T22:07:14.288Z,10.93
2019-05-18T22:09:42.300Z,13.58
2019-05-18T22:12:10.039Z,21.85
2019-05-18T22:14:38.848Z,12.63
2019-05-18T22:17:06.417Z,12.98
2019-05-18T22:19:34.095Z,12.30
2019-05-18T22:22:01.925Z,21.05
2019-05-18T22:24:31.024Z,26.65
2019-05-18T22:26:58.676Z,19.27
2019-05-18T22:29:26.738Z,16.12
2019-05-18T22:31:54.328Z,14.98
2019-05-18T22:34:22.048Z,14.20
2019-05-18T22:36:49.648Z,13.62
2019-05-18T22:39:23.106Z,14.20
2019-05-18T22:41:50.727Z,13.45
2019-05-18T22:44:18.493Z,14.07
2019-05-18T22:46:46.676Z,13.25
2019-05-18T22:49:14.637Z,13.15
2019-05-18T22:51:42.422Z,13.30
2019-05-18T22:54:10.051Z,12.88
2019-05-18T22:56:37.704Z,16.12
2019-05-18T22:59:05.431Z,13.50
2019-05-18T23:01:34.046Z,15.40
2019-05-18T23:04:10.763Z,12.65
2019-05-18T23:06:44.362Z,13.88
2019-05-18T23:09:12.340Z,13.13
2019-05-18T23:11:40.149Z,12.78
2019-05-18T23:14:08.039Z,12.07
2019-05-18T23:16:35.693Z,14.23
2019-05-18T23:19:04.061Z,15.38
2019-05-18T23:21:31.668Z,14.05
2019-05-18T23:24:00.845Z,14.03
2019-05-18T23:26:28.610Z,13.60
2019-05-18T23:28:56.443Z,15.08
2019-05-18T23:31:24.593Z,18.17
2019-05-18T23:33:53.436Z,16.00
2019-05-18T23:36:21.307Z,15.00
2019-05-18T23:38:48.887Z,14.20
2019-05-18T23:41:16.532Z,14.07
2019-05-18T23:43:44.509Z,12.80
2019-05-18T23:46:12.330Z,14.30
2019-05-18T23:48:40.197Z,13.90
2019-05-18T23:51:08.069Z,14.68
2019-05-18T23:53:35.981Z,13.22
2019-05-18T23:56:03.682Z,13.25
2019-05-18T23:58:32.428Z,13.62
